sensor_id;sensor_type;location;lat;lon;timestamp;noise_LAeq;noise_LA_min;noise_LA_max;noise_LA01;noise_LA95
47109;Laerm;32856;51.422;6.794;2023-07-13T00:01:46;46.76;42.98;50.74;;
47109;Laerm;32856;51.422;6.794;2023-07-13T00:04:16;45.66;42.22;50.06;;
47109;Laerm;32856;51.422;6.794;2023-07-13T00:06:45;46.66;42.35;51.78;;
47109;Laerm;32856;51.422;6.794;2023-07-13T00:09:12;56.45;42.98;73.26;;
47109;Laerm;32856;51.422;6.794;2023-07-13T00:11:40;53.78;43.14;73.94;;
47109;Laerm;32856;51.422;6.794;2023-07-13T00:14:08;47.71;42.65;52.90;;
47109;Laerm;32856;51.422;6.794;2023-07-13T00:16:36;49.55;43.77;57.00;;
47109;Laerm;32856;51.422;6.794;2023-07-13T00:19:04;46.12;41.14;52.15;;
47109;Laerm;32856;51.422;6.794;2023-07-13T00:21:32;46.35;42.65;51.16;;
47109;Laerm;32856;51.422;6.794;2023-07-13T00:24:01;53.33;43.72;70.35;;
47109;Laerm;32856;51.422;6.794;2023-07-13T00:26:29;57.12;43.58;75.01;;
47109;Laerm;32856;51.422;6.794;2023-07-13T00:28:58;46.04;42.65;50.55;;
47109;Laerm;32856;51.422;6.794;2023-07-13T00:31:26;52.42;42.88;69.63;;
47109;Laerm;32856;51.422;6.794;2023-07-13T00:33:53;46.36;43.19;55.22;;
47109;Laerm;32856;51.422;6.794;2023-07-13T00:36:20;52.54;42.22;72.07;;
47109;Laerm;32856;51.422;6.794;2023-07-13T00:38:48;45.33;41.14;53.69;;
47109;Laerm;32856;51.422;6.794;2023-07-13T00:41:16;54.18;41.61;73.68;;
47109;Laerm;32856;51.422;6.794;2023-07-13T00:43:44;46.05;41.14;52.87;;
47109;Laerm;32856;51.422;6.794;2023-07-13T00:46:15;47.84;43.14;53.96;;
47109;Laerm;32856;51.422;6.794;2023-07-13T00:48:43;47.49;42.16;59.11;;
47109;Laerm;32856;51.422;6.794;2023-07-13T00:51:12;52.59;45.14;68.39;;
47109;Laerm;32856;51.422;6.794;2023-07-13T00:53:40;54.36;43.77;72.73;;
47109;Laerm;32856;51.422;6.794;2023-07-13T00:56:08;54.73;42.82;72.32;;
47109;Laerm;32856;51.422;6.794;2023-07-13T00:58:37;51.46;44.27;69.92;;
47109;Laerm;32856;51.422;6.794;2023-07-13T01:01:05;48.06;43.86;52.03;;
47109;Laerm;32856;51.422;6.794;2023-07-13T01:03:32;54.25;43.94;68.42;;
47109;Laerm;32856;51.422;6.794;2023-07-13T01:06:01;46.94;43.09;50.68;;
47109;Laerm;32856;51.422;6.794;2023-07-13T01:08:29;46.84;43.58;51.87;;
47109;Laerm;32856;51.422;6.794;2023-07-13T01:10:56;48.79;44.54;54.06;;
47109;Laerm;32856;51.422;6.794;2023-07-13T01:13:24;48.61;45.07;53.70;;
47109;Laerm;32856;51.422;6.794;2023-07-13T01:15:55;47.29;42.47;53.38;;
47109;Laerm;32856;51.422;6.794;2023-07-13T01:18:25;48.49;44.03;52.24;;
47109;Laerm;32856;51.422;6.794;2023-07-13T01:20:55;52.09;43.72;69.49;;
47109;Laerm;32856;51.422;6.794;2023-07-13T01:23:23;49.00;45.54;52.80;;
47109;Laerm;32856;51.422;6.794;2023-07-13T01:25:52;49.66;44.07;64.62;;
47109;Laerm;32856;51.422;6.794;2023-07-13T01:28:19;47.59;43.49;54.60;;
47109;Laerm;32856;51.422;6.794;2023-07-13T01:30:47;48.22;43.68;53.00;;
47109;Laerm;32856;51.422;6.794;2023-07-13T01:33:15;48.57;45.48;51.78;;
47109;Laerm;32856;51.422;6.794;2023-07-13T01:35:43;53.56;43.58;71.70;;
47109;Laerm;32856;51.422;6.794;2023-07-13T01:38:13;48.08;43.04;55.32;;
47109;Laerm;32856;51.422;6.794;2023-07-13T01:40:41;50.03;42.76;55.81;;
47109;Laerm;32856;51.422;6.794;2023-07-13T01:43:08;49.10;43.99;52.83;;
47109;Laerm;32856;51.422;6.794;2023-07-13T01:45:36;54.40;44.54;73.78;;
47109;Laerm;32856;51.422;6.794;2023-07-13T01:48:03;54.98;42.22;71.26;;
47109;Laerm;32856;51.422;6.794;2023-07-13T01:50:33;47.52;43.94;51.55;;
47109;Laerm;32856;51.422;6.794;2023-07-13T01:53:00;49.24;43.68;53.46;;
47109;Laerm;32856;51.422;6.794;2023-07-13T01:55:29;47.76;44.23;52.68;;
47109;Laerm;32856;51.422;6.794;2023-07-13T01:57:56;53.21;42.98;71.09;;
47109;Laerm;32856;51.422;6.794;2023-07-13T02:00:24;53.38;42.47;75.65;;
47109;Laerm;32856;51.422;6.794;2023-07-13T02:02:51;51.17;43.68;68.84;;
47109;Laerm;32856;51.422;6.794;2023-07-13T02:05:19;51.01;44.23;58.09;;
47109;Laerm;32856;51.422;6.794;2023-07-13T02:07:46;53.40;45.23;71.78;;
47109;Laerm;32856;51.422;6.794;2023-07-13T02:10:14;54.75;45.04;72.33;;
47109;Laerm;32856;51.422;6.794;2023-07-13T02:12:42;50.42;43.86;65.43;;
47109;Laerm;32856;51.422;6.794;2023-07-13T02:15:10;58.64;45.89;73.95;;
47109;Laerm;32856;51.422;6.794;2023-07-13T02:17:37;54.43;45.63;73.77;;
47109;Laerm;32856;51.422;6.794;2023-07-13T02:20:05;53.57;43.39;72.33;;
47109;Laerm;32856;51.422;6.794;2023-07-13T02:22:33;48.73;44.31;53.54;;
47109;Laerm;32856;51.422;6.794;2023-07-13T02:25:01;55.58;44.94;72.07;;
47109;Laerm;32856;51.422;6.794;2023-07-13T02:27:28;51.37;43.72;57.16;;
47109;Laerm;32856;51.422;6.794;2023-07-13T02:29:57;56.77;43.58;76.75;;
47109;Laerm;32856;51.422;6.794;2023-07-13T02:32:24;53.65;48.57;68.76;;
47109;Laerm;32856;51.422;6.794;2023-07-13T02:34:52;50.74;47.06;54.23;;
47109;Laerm;32856;51.422;6.794;2023-07-13T02:37:20;49.37;45.07;53.06;;
47109;Laerm;32856;51.422;6.794;2023-07-13T02:39:47;59.46;46.95;79.76;;
47109;Laerm;32856;51.422;6.794;2023-07-13T02:42:14;58.14;45.69;76.56;;
47109;Laerm;32856;51.422;6.794;2023-07-13T02:44:42;60.21;46.59;78.47;;
47109;Laerm;32856;51.422;6.794;2023-07-13T02:47:10;58.12;47.08;77.65;;
47109;Laerm;32856;51.422;6.794;2023-07-13T02:49:39;54.93;46.48;72.65;;
47109;Laerm;32856;51.422;6.794;2023-07-13T02:52:06;52.74;47.44;66.08;;
47109;Laerm;32856;51.422;6.794;2023-07-13T02:54:34;55.03;45.72;73.47;;
47109;Laerm;32856;51.422;6.794;2023-07-13T02:57:01;52.30;48.28;56.10;;
47109;Laerm;32856;51.422;6.794;2023-07-13T02:59:28;52.01;47.90;57.43;;
47109;Laerm;32856;51.422;6.794;2023-07-13T03:01:56;57.92;48.61;72.94;;
47109;Laerm;32856;51.422;6.794;2023-07-13T03:04:25;56.69;48.46;75.86;;
47109;Laerm;32856;51.422;6.794;2023-07-13T03:06:52;56.42;49.12;72.65;;
47109;Laerm;32856;51.422;6.794;2023-07-13T03:09:24;56.57;47.93;73.27;;
47109;Laerm;32856;51.422;6.794;2023-07-13T03:11:52;53.28;48.59;65.17;;
47109;Laerm;32856;51.422;6.794;2023-07-13T03:14:20;57.84;47.81;76.81;;
47109;Laerm;32856;51.422;6.794;2023-07-13T03:16:47;60.21;49.71;74.55;;
47109;Laerm;32856;51.422;6.794;2023-07-13T03:19:15;54.05;48.69;68.80;;
47109;Laerm;32856;51.422;6.794;2023-07-13T03:21:43;58.47;50.56;74.22;;
47109;Laerm;32856;51.422;6.794;2023-07-13T03:24:11;58.12;50.82;74.11;;
47109;Laerm;32856;51.422;6.794;2023-07-13T03:26:38;60.31;50.35;78.49;;
47109;Laerm;32856;51.422;6.794;2023-07-13T03:29:06;59.10;49.88;73.08;;
47109;Laerm;32856;51.422;6.794;2023-07-13T03:31:34;58.89;50.22;74.29;;
47109;Laerm;32856;51.422;6.794;2023-07-13T03:34:02;62.38;49.14;82.00;;
47109;Laerm;32856;51.422;6.794;2023-07-13T03:36:30;53.77;50.07;63.09;;
47109;Laerm;32856;51.422;6.794;2023-07-13T03:39:00;60.56;49.94;82.49;;
47109;Laerm;32856;51.422;6.794;2023-07-13T03:41:27;57.01;50.53;73.32;;
47109;Laerm;32856;51.422;6.794;2023-07-13T03:43:55;60.85;50.53;77.89;;
47109;Laerm;32856;51.422;6.794;2023-07-13T03:46:22;60.54;50.40;75.42;;
47109;Laerm;32856;51.422;6.794;2023-07-13T03:48:50;62.24;48.95;77.40;;
47109;Laerm;32856;51.422;6.794;2023-07-13T03:51:18;61.63;50.21;75.23;;
47109;Laerm;32856;51.422;6.794;2023-07-13T03:53:46;62.59;49.93;76.37;;
47109;Laerm;32856;51.422;6.794;2023-07-13T03:56:16;58.95;51.00;75.36;;
47109;Laerm;32856;51.422;6.794;2023-07-13T03:58:45;58.86;50.80;73.74;;
47109;Laerm;32856;51.422;6.794;2023-07-13T04:01:13;59.78;50.58;74.04;;
47109;Laerm;32856;51.422;6.794;2023-07-13T04:03:40;61.41;50.71;74.61;;
47109;Laerm;32856;51.422;6.794;2023-07-13T04:06:16;55.11;49.74;67.69;;
47109;Laerm;32856;51.422;6.794;2023-07-13T04:08:47;60.08;49.96;73.38;;
47109;Laerm;32856;51.422;6.794;2023-07-13T04:11:17;58.70;51.24;71.18;;
47109;Laerm;32856;51.422;6.794;2023-07-13T04:13:45;59.41;50.75;77.34;;
47109;Laerm;32856;51.422;6.794;2023-07-13T04:16:12;62.25;50.17;79.02;;
47109;Laerm;32856;51.422;6.794;2023-07-13T04:18:40;60.48;49.55;84.00;;
47109;Laerm;32856;51.422;6.794;2023-07-13T04:21:08;59.85;50.42;73.91;;
47109;Laerm;32856;51.422;6.794;2023-07-13T04:23:36;60.54;52.10;75.99;;
47109;Laerm;32856;51.422;6.794;2023-07-13T04:26:03;60.32;51.18;71.45;;
47109;Laerm;32856;51.422;6.794;2023-07-13T04:28:33;62.09;51.12;79.83;;
47109;Laerm;32856;51.422;6.794;2023-07-13T04:31:00;63.77;51.14;76.55;;
47109;Laerm;32856;51.422;6.794;2023-07-13T04:33:28;59.55;48.99;71.84;;
47109;Laerm;32856;51.422;6.794;2023-07-13T04:35:56;62.77;51.26;77.29;;
47109;Laerm;32856;51.422;6.794;2023-07-13T04:38:24;64.43;53.24;77.11;;
47109;Laerm;32856;51.422;6.794;2023-07-13T04:40:54;62.33;50.66;74.66;;
47109;Laerm;32856;51.422;6.794;2023-07-13T04:43:21;60.36;50.92;73.13;;
47109;Laerm;32856;51.422;6.794;2023-07-13T04:45:51;62.37;50.69;74.60;;
47109;Laerm;32856;51.422;6.794;2023-07-13T04:48:18;59.15;50.22;73.26;;
47109;Laerm;32856;51.422;6.794;2023-07-13T04:50:45;62.76;51.77;75.01;;
47109;Laerm;32856;51.422;6.794;2023-07-13T04:53:14;62.47;50.29;74.52;;
47109;Laerm;32856;51.422;6.794;2023-07-13T04:55:42;59.20;49.63;71.53;;
47109;Laerm;32856;51.422;6.794;2023-07-13T04:58:09;66.42;50.05;84.39;;
47109;Laerm;32856;51.422;6.794;2023-07-13T05:00:36;62.96;50.28;80.25;;
47109;Laerm;32856;51.422;6.794;2023-07-13T05:03:05;60.52;47.68;74.39;;
47109;Laerm;32856;51.422;6.794;2023-07-13T05:05:32;60.42;50.10;70.96;;
47109;Laerm;32856;51.422;6.794;2023-07-13T05:08:00;62.89;49.85;74.91;;
47109;Laerm;32856;51.422;6.794;2023-07-13T05:10:27;63.89;51.84;76.98;;
47109;Laerm;32856;51.422;6.794;2023-07-13T05:12:55;58.53;50.60;69.31;;
47109;Laerm;32856;51.422;6.794;2023-07-13T05:15:22;62.77;50.05;76.11;;
47109;Laerm;32856;51.422;6.794;2023-07-13T05:17:50;64.77;51.39;82.27;;
47109;Laerm;32856;51.422;6.794;2023-07-13T05:20:19;63.27;51.45;79.00;;
47109;Laerm;32856;51.422;6.794;2023-07-13T05:22:46;64.63;50.47;77.73;;
47109;Laerm;32856;51.422;6.794;2023-07-13T05:25:14;64.66;49.46;82.62;;
47109;Laerm;32856;51.422;6.794;2023-07-13T05:27:41;66.68;51.22;81.71;;
47109;Laerm;32856;51.422;6.794;2023-07-13T05:30:11;63.91;50.38;78.45;;
47109;Laerm;32856;51.422;6.794;2023-07-13T05:32:39;63.31;51.12;75.47;;
47109;Laerm;32856;51.422;6.794;2023-07-13T05:35:07;63.79;51.06;75.38;;
47109;Laerm;32856;51.422;6.794;2023-07-13T05:37:36;64.38;50.84;76.12;;
47109;Laerm;32856;51.422;6.794;2023-07-13T05:40:04;65.30;51.53;75.78;;
47109;Laerm;32856;51.422;6.794;2023-07-13T05:42:32;66.94;51.57;87.85;;
47109;Laerm;32856;51.422;6.794;2023-07-13T05:44:59;65.99;51.45;75.85;;
47109;Laerm;32856;51.422;6.794;2023-07-13T05:47:26;66.21;49.52;80.10;;
47109;Laerm;32856;51.422;6.794;2023-07-13T05:49:54;61.28;49.04;74.71;;
47109;Laerm;32856;51.422;6.794;2023-07-13T05:52:21;63.90;49.53;80.76;;
47109;Laerm;32856;51.422;6.794;2023-07-13T05:54:50;64.27;49.89;79.89;;
47109;Laerm;32856;51.422;6.794;2023-07-13T05:57:17;65.59;49.38;81.79;;
47109;Laerm;32856;51.422;6.794;2023-07-13T05:59:45;62.18;50.65;77.38;;
47109;Laerm;32856;51.422;6.794;2023-07-13T06:02:13;63.47;47.32;80.83;;
47109;Laerm;32856;51.422;6.794;2023-07-13T06:04:40;64.94;49.75;78.92;;
47109;Laerm;32856;51.422;6.794;2023-07-13T06:07:08;64.47;49.34;78.84;;
47109;Laerm;32856;51.422;6.794;2023-07-13T06:09:35;67.97;50.05;81.24;;
47109;Laerm;32856;51.422;6.794;2023-07-13T06:12:04;68.77;49.85;83.01;;
47109;Laerm;32856;51.422;6.794;2023-07-13T06:14:32;63.72;46.25;76.02;;
47109;Laerm;32856;51.422;6.794;2023-07-13T06:16:59;62.89;48.78;76.54;;
47109;Laerm;32856;51.422;6.794;2023-07-13T06:19:26;65.01;49.63;78.20;;
47109;Laerm;32856;51.422;6.794;2023-07-13T06:21:54;61.33;49.30;75.04;;
47109;Laerm;32856;51.422;6.794;2023-07-13T06:24:23;64.62;49.28;76.68;;
47109;Laerm;32856;51.422;6.794;2023-07-13T06:26:50;64.98;50.50;75.28;;
47109;Laerm;32856;51.422;6.794;2023-07-13T06:29:18;66.01;49.06;85.93;;
47109;Laerm;32856;51.422;6.794;2023-07-13T06:31:46;65.56;50.14;78.98;;
47109;Laerm;32856;51.422;6.794;2023-07-13T06:34:13;65.45;49.92;80.40;;
47109;Laerm;32856;51.422;6.794;2023-07-13T06:36:41;62.29;47.63;74.96;;
47109;Laerm;32856;51.422;6.794;2023-07-13T06:39:08;65.82;50.65;76.23;;
47109;Laerm;32856;51.422;6.794;2023-07-13T06:41:35;64.82;48.85;75.36;;
47109;Laerm;32856;51.422;6.794;2023-07-13T06:44:04;63.67;49.08;76.77;;
47109;Laerm;32856;51.422;6.794;2023-07-13T06:46:33;68.63;50.06;83.62;;
47109;Laerm;32856;51.422;6.794;2023-07-13T06:49:01;63.98;50.58;73.45;;
47109;Laerm;32856;51.422;6.794;2023-07-13T06:51:28;64.22;50.08;77.57;;
47109;Laerm;32856;51.422;6.794;2023-07-13T06:53:55;63.81;49.20;77.57;;
47109;Laerm;32856;51.422;6.794;2023-07-13T06:56:23;65.42;48.81;79.41;;
47109;Laerm;32856;51.422;6.794;2023-07-13T06:58:50;63.28;49.87;75.76;;
47109;Laerm;32856;51.422;6.794;2023-07-13T07:01:17;60.40;47.18;74.63;;
47109;Laerm;32856;51.422;6.794;2023-07-13T07:03:46;63.73;48.34;76.20;;
47109;Laerm;32856;51.422;6.794;2023-07-13T07:06:15;65.64;47.54;79.81;;
47109;Laerm;32856;51.422;6.794;2023-07-13T07:08:43;64.83;49.63;78.37;;
47109;Laerm;32856;51.422;6.794;2023-07-13T07:11:11;60.60;47.85;74.11;;
47109;Laerm;32856;51.422;6.794;2023-07-13T07:13:39;65.45;48.74;76.96;;
47109;Laerm;32856;51.422;6.794;2023-07-13T07:16:07;63.33;48.52;73.95;;
47109;Laerm;32856;51.422;6.794;2023-07-13T07:18:35;62.63;48.90;74.95;;
47109;Laerm;32856;51.422;6.794;2023-07-13T07:21:03;64.00;49.96;78.37;;
47109;Laerm;32856;51.422;6.794;2023-07-13T07:23:31;64.72;49.18;81.63;;
47109;Laerm;32856;51.422;6.794;2023-07-13T07:25:58;65.94;49.27;81.87;;
47109;Laerm;32856;51.422;6.794;2023-07-13T07:28:26;62.41;45.97;74.90;;
47109;Laerm;32856;51.422;6.794;2023-07-13T07:31:07;64.86;46.25;78.84;;
47109;Laerm;32856;51.422;6.794;2023-07-13T07:33:38;62.51;47.22;74.40;;
47109;Laerm;32856;51.422;6.794;2023-07-13T07:36:07;62.64;49.03;77.28;;
47109;Laerm;32856;51.422;6.794;2023-07-13T07:38:37;66.11;48.83;79.81;;
47109;Laerm;32856;51.422;6.794;2023-07-13T07:41:04;65.40;48.70;76.56;;
47109;Laerm;32856;51.422;6.794;2023-07-13T07:43:35;63.62;48.12;73.68;;
47109;Laerm;32856;51.422;6.794;2023-07-13T07:46:03;63.37;46.50;74.20;;
47109;Laerm;32856;51.422;6.794;2023-07-13T07:48:30;65.27;47.93;76.70;;
47109;Laerm;32856;51.422;6.794;2023-07-13T07:50:58;64.68;49.81;78.03;;
47109;Laerm;32856;51.422;6.794;2023-07-13T07:53:26;63.25;47.98;75.13;;
47109;Laerm;32856;51.422;6.794;2023-07-13T07:55:54;62.47;48.78;73.34;;
47109;Laerm;32856;51.422;6.794;2023-07-13T07:58:25;67.19;50.74;79.54;;
47109;Laerm;32856;51.422;6.794;2023-07-13T08:01:01;63.12;48.55;74.39;;
47109;Laerm;32856;51.422;6.794;2023-07-13T08:03:31;63.04;49.24;75.57;;
47109;Laerm;32856;51.422;6.794;2023-07-13T08:06:01;65.88;49.30;78.16;;
47109;Laerm;32856;51.422;6.794;2023-07-13T08:08:33;62.22;46.95;72.62;;
47109;Laerm;32856;51.422;6.794;2023-07-13T08:11:02;63.34;48.08;75.80;;
47109;Laerm;32856;51.422;6.794;2023-07-13T08:13:50;64.41;49.24;81.47;;
47109;Laerm;32856;51.422;6.794;2023-07-13T08:16:20;61.86;47.61;80.60;;
47109;Laerm;32856;51.422;6.794;2023-07-13T08:18:48;66.35;49.04;83.36;;
47109;Laerm;32856;51.422;6.794;2023-07-13T08:21:15;64.24;50.26;77.55;;
47109;Laerm;32856;51.422;6.794;2023-07-13T08:23:47;66.30;49.82;78.50;;
47109;Laerm;32856;51.422;6.794;2023-07-13T08:26:14;62.63;47.63;76.37;;
47109;Laerm;32856;51.422;6.794;2023-07-13T08:28:42;64.45;48.46;79.85;;
47109;Laerm;32856;51.422;6.794;2023-07-13T08:31:09;61.70;48.34;74.64;;
47109;Laerm;32856;51.422;6.794;2023-07-13T08:33:37;67.71;49.75;85.78;;
47109;Laerm;32856;51.422;6.794;2023-07-13T08:36:07;63.53;47.84;74.98;;
47109;Laerm;32856;51.422;6.794;2023-07-13T08:38:34;63.39;48.66;76.50;;
47109;Laerm;32856;51.422;6.794;2023-07-13T08:41:09;64.53;48.77;80.81;;
47109;Laerm;32856;51.422;6.794;2023-07-13T08:43:37;63.25;46.91;77.50;;
47109;Laerm;32856;51.422;6.794;2023-07-13T08:46:06;63.80;48.58;80.69;;
47109;Laerm;32856;51.422;6.794;2023-07-13T08:48:36;63.28;45.86;76.04;;
47109;Laerm;32856;51.422;6.794;2023-07-13T08:51:09;63.61;48.94;77.13;;
47109;Laerm;32856;51.422;6.794;2023-07-13T08:53:39;63.82;50.16;76.28;;
47109;Laerm;32856;51.422;6.794;2023-07-13T08:56:11;64.15;48.48;78.07;;
47109;Laerm;32856;51.422;6.794;2023-07-13T08:58:43;64.35;50.38;78.84;;
47109;Laerm;32856;51.422;6.794;2023-07-13T09:01:14;62.38;47.34;73.50;;
47109;Laerm;32856;51.422;6.794;2023-07-13T09:03:46;65.26;46.80;81.06;;
47109;Laerm;32856;51.422;6.794;2023-07-13T09:06:20;63.51;48.98;75.02;;
47109;Laerm;32856;51.422;6.794;2023-07-13T09:08:51;63.49;48.46;77.83;;
47109;Laerm;32856;51.422;6.794;2023-07-13T09:11:33;63.33;47.77;78.53;;
47109;Laerm;32856;51.422;6.794;2023-07-13T09:14:06;65.16;48.84;79.43;;
47109;Laerm;32856;51.422;6.794;2023-07-13T09:16:40;63.41;47.06;76.82;;
47109;Laerm;32856;51.422;6.794;2023-07-13T09:19:09;64.71;45.99;78.34;;
47109;Laerm;32856;51.422;6.794;2023-07-13T09:21:39;64.26;47.63;76.57;;
47109;Laerm;32856;51.422;6.794;2023-07-13T09:24:34;63.53;48.25;75.57;;
47109;Laerm;32856;51.422;6.794;2023-07-13T09:27:08;64.00;49.03;77.42;;
47109;Laerm;32856;51.422;6.794;2023-07-13T09:29:36;65.56;48.78;77.79;;
47109;Laerm;32856;51.422;6.794;2023-07-13T09:32:09;63.98;48.66;82.69;;
47109;Laerm;32856;51.422;6.794;2023-07-13T09:34:37;61.83;46.82;73.68;;
47109;Laerm;32856;51.422;6.794;2023-07-13T09:37:05;61.12;47.32;77.06;;
47109;Laerm;32856;51.422;6.794;2023-07-13T09:39:33;64.17;47.26;81.80;;
47109;Laerm;32856;51.422;6.794;2023-07-13T09:42:03;63.79;47.72;77.77;;
47109;Laerm;32856;51.422;6.794;2023-07-13T09:44:36;65.21;49.60;74.97;;
47109;Laerm;32856;51.422;6.794;2023-07-13T09:47:03;63.20;49.41;75.24;;
47109;Laerm;32856;51.422;6.794;2023-07-13T09:49:40;62.88;49.06;75.06;;
47109;Laerm;32856;51.422;6.794;2023-07-13T09:52:10;65.41;52.41;76.42;;
47109;Laerm;32856;51.422;6.794;2023-07-13T09:54:38;63.69;46.82;76.19;;
47109;Laerm;32856;51.422;6.794;2023-07-13T09:57:11;67.35;50.96;80.93;;
47109;Laerm;32856;51.422;6.794;2023-07-13T09:59:41;64.37;49.15;76.43;;
47109;Laerm;32856;51.422;6.794;2023-07-13T10:02:24;62.26;49.33;76.23;;
47109;Laerm;32856;51.422;6.794;2023-07-13T10:04:55;63.71;48.43;76.08;;
47109;Laerm;32856;51.422;6.794;2023-07-13T10:07:22;65.90;48.78;83.45;;
47109;Laerm;32856;51.422;6.794;2023-07-13T10:09:55;68.52;49.66;82.76;;
47109;Laerm;32856;51.422;6.794;2023-07-13T10:12:23;64.84;50.27;83.16;;
47109;Laerm;32856;51.422;6.794;2023-07-13T10:14:53;63.76;48.25;76.33;;
47109;Laerm;32856;51.422;6.794;2023-07-13T10:17:33;64.37;51.29;78.76;;
47109;Laerm;32856;51.422;6.794;2023-07-13T10:20:02;63.22;47.28;73.25;;
47109;Laerm;32856;51.422;6.794;2023-07-13T10:22:35;67.17;53.12;80.14;;
47109;Laerm;32856;51.422;6.794;2023-07-13T10:25:10;64.45;49.78;80.77;;
47109;Laerm;32856;51.422;6.794;2023-07-13T10:27:40;68.94;48.74;83.02;;
47109;Laerm;32856;51.422;6.794;2023-07-13T10:30:11;68.77;49.56;81.42;;
47109;Laerm;32856;51.422;6.794;2023-07-13T10:32:42;65.30;49.45;80.58;;
47109;Laerm;32856;51.422;6.794;2023-07-13T10:35:10;68.53;48.88;91.84;;
47109;Laerm;32856;51.422;6.794;2023-07-13T10:37:43;79.27;50.06;102.24;;
47109;Laerm;32856;51.422;6.794;2023-07-13T10:40:13;65.37;52.81;78.35;;
47109;Laerm;32856;51.422;6.794;2023-07-13T10:42:42;66.08;48.21;83.54;;
47109;Laerm;32856;51.422;6.794;2023-07-13T10:45:14;67.78;49.58;83.65;;
47109;Laerm;32856;51.422;6.794;2023-07-13T10:47:43;64.95;49.80;77.95;;
47109;Laerm;32856;51.422;6.794;2023-07-13T10:50:13;67.24;49.19;79.43;;
47109;Laerm;32856;51.422;6.794;2023-07-13T10:52:44;64.76;49.63;77.10;;
47109;Laerm;32856;51.422;6.794;2023-07-13T10:55:32;64.96;47.46;78.24;;
47109;Laerm;32856;51.422;6.794;2023-07-13T10:58:14;63.87;47.16;75.57;;
47109;Laerm;32856;51.422;6.794;2023-07-13T11:00:45;65.10;48.42;77.86;;
47109;Laerm;32856;51.422;6.794;2023-07-13T11:03:14;61.81;49.95;75.61;;
47109;Laerm;32856;51.422;6.794;2023-07-13T11:05:42;66.74;49.55;83.44;;
47109;Laerm;32856;51.422;6.794;2023-07-13T11:08:15;63.44;51.10;77.67;;
47109;Laerm;32856;51.422;6.794;2023-07-13T11:10:47;65.03;50.51;76.69;;
47109;Laerm;32856;51.422;6.794;2023-07-13T11:16:03;61.72;47.38;72.92;;
47109;Laerm;32856;51.422;6.794;2023-07-13T11:18:39;67.06;48.40;84.25;;
47109;Laerm;32856;51.422;6.794;2023-07-13T11:21:13;63.50;47.76;78.42;;
47109;Laerm;32856;51.422;6.794;2023-07-13T11:24:00;65.73;48.21;75.99;;
47109;Laerm;32856;51.422;6.794;2023-07-13T11:26:37;66.57;48.76;82.07;;
47109;Laerm;32856;51.422;6.794;2023-07-13T11:29:07;62.46;47.48;73.54;;
47109;Laerm;32856;51.422;6.794;2023-07-13T11:31:36;65.02;50.13;79.12;;
47109;Laerm;32856;51.422;6.794;2023-07-13T11:34:06;64.84;47.84;75.49;;
47109;Laerm;32856;51.422;6.794;2023-07-13T11:36:41;62.62;47.65;73.52;;
47109;Laerm;32856;51.422;6.794;2023-07-13T11:39:16;66.13;49.62;78.89;;
47109;Laerm;32856;51.422;6.794;2023-07-13T11:41:45;64.19;49.93;79.31;;
47109;Laerm;32856;51.422;6.794;2023-07-13T11:44:18;64.41;49.52;75.26;;
47109;Laerm;32856;51.422;6.794;2023-07-13T11:46:48;63.76;48.10;76.83;;
47109;Laerm;32856;51.422;6.794;2023-07-13T11:49:19;66.48;49.84;78.93;;
47109;Laerm;32856;51.422;6.794;2023-07-13T11:51:49;63.42;49.65;75.85;;
47109;Laerm;32856;51.422;6.794;2023-07-13T11:54:22;63.48;50.16;78.10;;
47109;Laerm;32856;51.422;6.794;2023-07-13T11:56:50;68.20;50.07;85.73;;
47109;Laerm;32856;51.422;6.794;2023-07-13T11:59:17;66.91;52.91;79.23;;
47109;Laerm;32856;51.422;6.794;2023-07-13T12:01:46;63.29;48.63;74.69;;
47109;Laerm;32856;51.422;6.794;2023-07-13T12:04:20;65.93;50.34;80.31;;
47109;Laerm;32856;51.422;6.794;2023-07-13T12:06:53;64.04;50.59;74.46;;
47109;Laerm;32856;51.422;6.794;2023-07-13T12:09:21;66.44;49.36;77.76;;
47109;Laerm;32856;51.422;6.794;2023-07-13T12:11:51;65.70;48.76;83.97;;
47109;Laerm;32856;51.422;6.794;2023-07-13T12:14:19;67.53;48.37;81.52;;
47109;Laerm;32856;51.422;6.794;2023-07-13T12:16:46;64.10;50.13;76.27;;
47109;Laerm;32856;51.422;6.794;2023-07-13T12:19:17;64.93;49.19;76.58;;
47109;Laerm;32856;51.422;6.794;2023-07-13T12:21:46;64.53;49.57;79.22;;
47109;Laerm;32856;51.422;6.794;2023-07-13T12:24:14;65.12;48.76;73.81;;
47109;Laerm;32856;51.422;6.794;2023-07-13T12:26:42;64.34;49.33;76.18;;
47109;Laerm;32856;51.422;6.794;2023-07-13T12:29:11;63.75;48.84;74.69;;
47109;Laerm;32856;51.422;6.794;2023-07-13T12:31:43;64.61;50.90;75.53;;
47109;Laerm;32856;51.422;6.794;2023-07-13T12:34:11;63.33;46.23;76.71;;
47109;Laerm;32856;51.422;6.794;2023-07-13T12:36:41;66.34;49.30;77.67;;
47109;Laerm;32856;51.422;6.794;2023-07-13T12:39:15;64.39;48.46;73.91;;
47109;Laerm;32856;51.422;6.794;2023-07-13T12:41:43;67.94;51.23;80.01;;
47109;Laerm;32856;51.422;6.794;2023-07-13T12:44:11;64.58;50.28;73.71;;
47109;Laerm;32856;51.422;6.794;2023-07-13T12:46:39;66.63;48.10;82.51;;
47109;Laerm;32856;51.422;6.794;2023-07-13T12:49:07;64.56;48.45;78.35;;
47109;Laerm;32856;51.422;6.794;2023-07-13T12:51:44;65.11;47.42;77.96;;
47109;Laerm;32856;51.422;6.794;2023-07-13T12:54:15;64.92;45.27;78.36;;
47109;Laerm;32856;51.422;6.794;2023-07-13T12:56:43;64.69;51.36;74.53;;
47109;Laerm;32856;51.422;6.794;2023-07-13T12:59:15;65.03;53.47;74.62;;
47109;Laerm;32856;51.422;6.794;2023-07-13T13:01:44;63.47;52.54;75.28;;
47109;Laerm;32856;51.422;6.794;2023-07-13T13:04:12;63.93;51.12;72.76;;
47109;Laerm;32856;51.422;6.794;2023-07-13T13:06:40;66.25;50.18;81.02;;
47109;Laerm;32856;51.422;6.794;2023-07-13T13:09:09;66.12;49.39;77.15;;
47109;Laerm;32856;51.422;6.794;2023-07-13T13:11:40;65.46;46.76;78.64;;
47109;Laerm;32856;51.422;6.794;2023-07-13T13:14:08;65.25;47.79;73.78;;
47109;Laerm;32856;51.422;6.794;2023-07-13T13:16:37;66.17;48.91;79.32;;
47109;Laerm;32856;51.422;6.794;2023-07-13T13:19:12;66.72;49.59;76.64;;
47109;Laerm;32856;51.422;6.794;2023-07-13T13:21:40;62.97;46.73;74.61;;
47109;Laerm;32856;51.422;6.794;2023-07-13T13:24:10;66.53;52.65;77.56;;
47109;Laerm;32856;51.422;6.794;2023-07-13T13:26:38;67.51;51.30;76.77;;
47109;Laerm;32856;51.422;6.794;2023-07-13T13:29:10;63.70;47.38;75.13;;
47109;Laerm;32856;51.422;6.794;2023-07-13T13:31:39;65.55;47.81;75.98;;
47109;Laerm;32856;51.422;6.794;2023-07-13T13:34:07;65.84;48.34;79.89;;
47109;Laerm;32856;51.422;6.794;2023-07-13T13:36:35;65.01;47.34;75.25;;
47109;Laerm;32856;51.422;6.794;2023-07-13T13:39:02;65.18;47.02;77.26;;
47109;Laerm;32856;51.422;6.794;2023-07-13T13:41:30;63.74;47.90;78.51;;
47109;Laerm;32856;51.422;6.794;2023-07-13T13:43:58;65.92;48.39;81.64;;
47109;Laerm;32856;51.422;6.794;2023-07-13T13:46:27;64.65;48.36;79.71;;
47109;Laerm;32856;51.422;6.794;2023-07-13T13:48:56;66.78;51.94;75.08;;
47109;Laerm;32856;51.422;6.794;2023-07-13T13:51:24;64.69;47.59;74.10;;
47109;Laerm;32856;51.422;6.794;2023-07-13T13:53:51;66.60;50.61;77.81;;
47109;Laerm;32856;51.422;6.794;2023-07-13T13:56:19;64.79;50.16;77.31;;
47109;Laerm;32856;51.422;6.794;2023-07-13T13:58:47;66.78;49.80;79.71;;